sensor_id;sensor_type;location;lat;lon;timestamp;P1;durP1;ratioP1;P2;durP2;ratioP2
13419;SDS011;6781;58.440;15.470;2023-09-07T00:43:34;3.78;;;1.60;;
13419;SDS011;6781;58.440;15.470;2023-09-07T00:46:01;2.13;;;1.80;;
13419;SDS011;6781;58.440;15.470;2023-09-07T00:48:29;4.60;;;1.52;;
13419;SDS011;6781;58.440;15.470;2023-09-07T00:50:56;3.83;;;1.88;;
13419;SDS011;6781;58.440;15.470;2023-09-07T00:53:22;2.88;;;1.60;;
13419;SDS011;6781;58.440;15.470;2023-09-07T00:55:50;1.85;;;1.58;;
13419;SDS011;6781;58.440;15.470;2023-09-07T00:58:20;5.70;;;1.85;;
13419;SDS011;6781;58.440;15.470;2023-09-07T01:00:49;1.95;;;1.55;;
13419;SDS011;6781;58.440;15.470;2023-09-07T01:03:17;2.53;;;1.67;;
13419;SDS011;6781;58.440;15.470;2023-09-07T01:05:46;2.78;;;1.50;;
13419;SDS011;6781;58.440;15.470;2023-09-07T01:08:19;2.55;;;1.60;;
13419;SDS011;6781;58.440;15.470;2023-09-07T01:10:50;2.65;;;1.50;;
13419;SDS011;6781;58.440;15.470;2023-09-07T01:13:17;4.38;;;1.80;;
13419;SDS011;6781;58.440;15.470;2023-09-07T01:15:45;2.90;;;1.52;;
13419;SDS011;6781;58.440;15.470;2023-09-07T01:18:14;4.15;;;1.90;;
13419;SDS011;6781;58.440;15.470;2023-09-07T01:20:42;3.67;;;1.85;;
13419;SDS011;6781;58.440;15.470;2023-09-07T01:23:13;2.25;;;1.40;;
13419;SDS011;6781;58.440;15.470;2023-09-07T01:25:40;3.83;;;2.00;;
13419;SDS011;6781;58.440;15.470;2023-09-07T01:28:08;2.28;;;1.60;;
13419;SDS011;6781;58.440;15.470;2023-09-07T01:30:35;3.90;;;1.80;;
13419;SDS011;6781;58.440;15.470;2023-09-07T01:33:04;4.38;;;1.75;;
13419;SDS011;6781;58.440;15.470;2023-09-07T01:35:31;2.25;;;1.63;;
13419;SDS011;6781;58.440;15.470;2023-09-07T01:38:00;3.30;;;2.10;;
13419;SDS011;6781;58.440;15.470;2023-09-07T01:40:29;5.80;;;1.80;;
13419;SDS011;6781;58.440;15.470;2023-09-07T01:42:56;3.20;;;1.73;;
13419;SDS011;6781;58.440;15.470;2023-09-07T01:45:26;4.53;;;1.88;;
13419;SDS011;6781;58.440;15.470;2023-09-07T01:47:53;3.60;;;1.75;;
13419;SDS011;6781;58.440;15.470;2023-09-07T01:50:20;2.75;;;1.70;;
13419;SDS011;6781;58.440;15.470;2023-09-07T01:52:47;3.95;;;2.17;;
13419;SDS011;6781;58.440;15.470;2023-09-07T01:55:15;3.65;;;1.75;;
13419;SDS011;6781;58.440;15.470;2023-09-07T01:57:43;3.10;;;1.70;;
13419;SDS011;6781;58.440;15.470;2023-09-07T02:00:11;2.38;;;1.73;;
13419;SDS011;6781;58.440;15.470;2023-09-07T02:05:13;3.17;;;1.77;;
13419;SDS011;6781;58.440;15.470;2023-09-07T02:07:40;4.78;;;2.10;;
13419;SDS011;6781;58.440;15.470;2023-09-07T02:10:07;2.75;;;1.80;;
13419;SDS011;6781;58.440;15.470;2023-09-07T02:12:35;4.07;;;1.63;;
13419;SDS011;6781;58.440;15.470;2023-09-07T02:15:04;2.67;;;1.60;;
13419;SDS011;6781;58.440;15.470;2023-09-07T02:17:31;3.95;;;1.85;;
13419;SDS011;6781;58.440;15.470;2023-09-07T02:19:58;2.60;;;1.67;;
13419;SDS011;6781;58.440;15.470;2023-09-07T02:22:25;6.22;;;1.90;;
13419;SDS011;6781;58.440;15.470;2023-09-07T02:24:52;2.45;;;1.30;;
13419;SDS011;6781;58.440;15.470;2023-09-07T02:27:20;4.20;;;1.70;;
13419;SDS011;6781;58.440;15.470;2023-09-07T02:29:47;3.22;;;1.83;;
13419;SDS011;6781;58.440;15.470;2023-09-07T02:32:15;9.05;;;1.65;;
13419;SDS011;6781;58.440;15.470;2023-09-07T02:34:42;1.58;;;1.35;;
13419;SDS011;6781;58.440;15.470;2023-09-07T02:37:09;2.03;;;1.30;;
13419;SDS011;6781;58.440;15.470;2023-09-07T02:39:36;4.47;;;1.45;;
13419;SDS011;6781;58.440;15.470;2023-09-07T02:42:03;3.47;;;1.48;;
13419;SDS011;6781;58.440;15.470;2023-09-07T02:44:31;1.90;;;1.40;;
13419;SDS011;6781;58.440;15.470;2023-09-07T02:46:58;4.85;;;2.13;;
13419;SDS011;6781;58.440;15.470;2023-09-07T02:49:26;4.32;;;1.63;;
13419;SDS011;6781;58.440;15.470;2023-09-07T02:51:54;3.20;;;1.50;;
13419;SDS011;6781;58.440;15.470;2023-09-07T02:54:22;2.38;;;1.55;;
13419;SDS011;6781;58.440;15.470;2023-09-07T02:56:50;4.32;;;1.60;;
13419;SDS011;6781;58.440;15.470;2023-09-07T02:59:17;3.65;;;1.88;;
13419;SDS011;6781;58.440;15.470;2023-09-07T03:01:45;2.80;;;1.67;;
13419;SDS011;6781;58.440;15.470;2023-09-07T03:04:12;2.25;;;1.20;;
13419;SDS011;6781;58.440;15.470;2023-09-07T03:06:40;3.45;;;1.38;;
13419;SDS011;6781;58.440;15.470;2023-09-07T03:09:10;3.17;;;1.42;;
13419;SDS011;6781;58.440;15.470;2023-09-07T03:11:37;1.95;;;1.40;;
13419;SDS011;6781;58.440;15.470;2023-09-07T03:14:04;3.58;;;1.67;;
13419;SDS011;6781;58.440;15.470;2023-09-07T03:16:31;5.57;;;1.90;;
13419;SDS011;6781;58.440;15.470;2023-09-07T03:18:58;2.90;;;1.60;;
13419;SDS011;6781;58.440;15.470;2023-09-07T03:21:25;3.17;;;1.60;;
13419;SDS011;6781;58.440;15.470;2023-09-07T03:23:56;3.28;;;1.60;;
13419;SDS011;6781;58.440;15.470;2023-09-07T03:26:23;4.05;;;1.73;;
13419;SDS011;6781;58.440;15.470;2023-09-07T03:28:50;2.90;;;1.60;;
13419;SDS011;6781;58.440;15.470;2023-09-07T03:31:17;1.38;;;1.27;;
13419;SDS011;6781;58.440;15.470;2023-09-07T03:33:44;5.32;;;1.70;;
13419;SDS011;6781;58.440;15.470;2023-09-07T03:36:12;2.33;;;1.17;;
13419;SDS011;6781;58.440;15.470;2023-09-07T03:38:40;2.53;;;1.52;;
13419;SDS011;6781;58.440;15.470;2023-09-07T03:41:09;3.97;;;1.20;;
13419;SDS011;6781;58.440;15.470;2023-09-07T03:43:36;3.05;;;1.33;;
13419;SDS011;6781;58.440;15.470;2023-09-07T03:46:03;2.35;;;1.20;;
13419;SDS011;6781;58.440;15.470;2023-09-07T03:48:29;3.30;;;1.52;;
13419;SDS011;6781;58.440;15.470;2023-09-07T03:50:57;3.78;;;1.35;;
13419;SDS011;6781;58.440;15.470;2023-09-07T03:53:24;2.00;;;1.02;;
13419;SDS011;6781;58.440;15.470;2023-09-07T03:55:51;2.30;;;1.00;;
13419;SDS011;6781;58.440;15.470;2023-09-07T03:58:20;2.83;;;1.33;;
13419;SDS011;6781;58.440;15.470;2023-09-07T04:00:47;1.98;;;0.98;;
13419;SDS011;6781;58.440;15.470;2023-09-07T04:03:17;2.15;;;1.15;;
13419;SDS011;6781;58.440;15.470;2023-09-07T04:05:44;3.30;;;1.10;;
13419;SDS011;6781;58.440;15.470;2023-09-07T04:08:11;1.67;;;1.00;;
13419;SDS011;6781;58.440;15.470;2023-09-07T04:10:38;1.95;;;1.13;;
13419;SDS011;6781;58.440;15.470;2023-09-07T04:13:06;2.63;;;1.15;;
13419;SDS011;6781;58.440;15.470;2023-09-07T04:15:40;2.50;;;1.00;;
13419;SDS011;6781;58.440;15.470;2023-09-07T04:18:08;1.27;;;1.02;;
13419;SDS011;6781;58.440;15.470;2023-09-07T04:20:37;2.05;;;0.88;;
13419;SDS011;6781;58.440;15.470;2023-09-07T04:23:07;4.13;;;1.00;;
13419;SDS011;6781;58.440;15.470;2023-09-07T04:25:34;1.02;;;0.95;;
13419;SDS011;6781;58.440;15.470;2023-09-07T04:28:01;3.67;;;1.15;;
13419;SDS011;6781;58.440;15.470;2023-09-07T04:30:29;1.60;;;1.17;;
13419;SDS011;6781;58.440;15.470;2023-09-07T04:32:57;2.13;;;1.10;;
13419;SDS011;6781;58.440;15.470;2023-09-07T04:35:26;1.83;;;1.30;;
13419;SDS011;6781;58.440;15.470;2023-09-07T04:37:54;2.28;;;1.20;;
13419;SDS011;6781;58.440;15.470;2023-09-07T04:40:21;0.90;;;0.80;;
13419;SDS011;6781;58.440;15.470;2023-09-07T04:42:48;2.53;;;0.90;;
13419;SDS011;6781;58.440;15.470;2023-09-07T04:45:15;2.20;;;1.08;;
13419;SDS011;6781;58.440;15.470;2023-09-07T04:47:43;2.35;;;1.00;;
13419;SDS011;6781;58.440;15.470;2023-09-07T04:50:12;3.15;;;1.10;;
13419;SDS011;6781;58.440;15.470;2023-09-07T04:52:39;3.28;;;1.00;;
13419;SDS011;6781;58.440;15.470;2023-09-07T04:55:06;2.80;;;1.30;;
13419;SDS011;6781;58.440;15.470;2023-09-07T04:57:35;3.13;;;1.20;;
13419;SDS011;6781;58.440;15.470;2023-09-07T05:00:03;1.65;;;0.88;;
13419;SDS011;6781;58.440;15.470;2023-09-07T05:02:31;2.25;;;1.20;;
13419;SDS011;6781;58.440;15.470;2023-09-07T05:05:03;2.22;;;0.75;;
13419;SDS011;6781;58.440;15.470;2023-09-07T05:07:32;2.70;;;1.20;;
13419;SDS011;6781;58.440;15.470;2023-09-07T05:09:59;2.17;;;1.15;;
13419;SDS011;6781;58.440;15.470;2023-09-07T05:12:26;2.78;;;1.02;;
13419;SDS011;6781;58.440;15.470;2023-09-07T05:14:54;1.83;;;1.00;;
13419;SDS011;6781;58.440;15.470;2023-09-07T05:17:21;1.60;;;1.20;;
13419;SDS011;6781;58.440;15.470;2023-09-07T05:19:48;3.10;;;1.40;;
13419;SDS011;6781;58.440;15.470;2023-09-07T05:22:15;1.17;;;0.85;;
13419;SDS011;6781;58.440;15.470;2023-09-07T05:24:43;6.38;;;1.30;;
13419;SDS011;6781;58.440;15.470;2023-09-07T05:27:12;4.32;;;1.98;;
13419;SDS011;6781;58.440;15.470;2023-09-07T05:29:39;2.08;;;1.10;;
13419;SDS011;6781;58.440;15.470;2023-09-07T05:32:09;0.80;;;0.80;;
13419;SDS011;6781;58.440;15.470;2023-09-07T05:34:36;1.77;;;0.90;;
13419;SDS011;6781;58.440;15.470;2023-09-07T05:37:03;4.03;;;0.90;;
13419;SDS011;6781;58.440;15.470;2023-09-07T05:39:30;1.67;;;1.02;;
13419;SDS011;6781;58.440;15.470;2023-09-07T05:41:59;1.42;;;0.88;;
13419;SDS011;6781;58.440;15.470;2023-09-07T05:44:26;1.63;;;1.10;;
13419;SDS011;6781;58.440;15.470;2023-09-07T05:46:53;5.28;;;1.30;;
13419;SDS011;6781;58.440;15.470;2023-09-07T05:49:20;4.13;;;1.13;;
13419;SDS011;6781;58.440;15.470;2023-09-07T05:51:46;2.67;;;1.00;;
13419;SDS011;6781;58.440;15.470;2023-09-07T05:54:13;1.15;;;0.90;;
13419;SDS011;6781;58.440;15.470;2023-09-07T05:56:40;1.02;;;0.60;;
13419;SDS011;6781;58.440;15.470;2023-09-07T05:59:09;3.75;;;1.30;;
13419;SDS011;6781;58.440;15.470;2023-09-07T06:04:05;4.10;;;1.40;;
13419;SDS011;6781;58.440;15.470;2023-09-07T06:06:32;6.82;;;0.90;;
13419;SDS011;6781;58.440;15.470;2023-09-07T06:08:59;3.47;;;1.00;;
13419;SDS011;6781;58.440;15.470;2023-09-07T06:11:26;2.10;;;0.90;;
13419;SDS011;6781;58.440;15.470;2023-09-07T06:13:54;1.48;;;0.93;;
13419;SDS011;6781;58.440;15.470;2023-09-07T06:16:23;2.47;;;1.00;;
13419;SDS011;6781;58.440;15.470;2023-09-07T06:18:50;1.05;;;0.85;;
13419;SDS011;6781;58.440;15.470;2023-09-07T06:21:17;1.85;;;1.00;;
13419;SDS011;6781;58.440;15.470;2023-09-07T06:23:43;3.73;;;0.80;;
13419;SDS011;6781;58.440;15.470;2023-09-07T06:26:11;1.25;;;0.65;;
13419;SDS011;6781;58.440;15.470;2023-09-07T06:28:38;1.20;;;0.88;;
13419;SDS011;6781;58.440;15.470;2023-09-07T06:31:08;1.20;;;0.90;;
13419;SDS011;6781;58.440;15.470;2023-09-07T06:33:36;1.38;;;0.77;;
13419;SDS011;6781;58.440;15.470;2023-09-07T06:36:03;1.35;;;0.60;;
13419;SDS011;6781;58.440;15.470;2023-09-07T06:38:30;5.85;;;1.00;;
13419;SDS011;6781;58.440;15.470;2023-09-07T06:40:58;1.85;;;0.80;;
13419;SDS011;6781;58.440;15.470;2023-09-07T06:43:25;1.20;;;0.90;;
13419;SDS011;6781;58.440;15.470;2023-09-07T06:45:52;0.75;;;0.68;;
13419;SDS011;6781;58.440;15.470;2023-09-07T06:48:19;1.15;;;0.80;;
13419;SDS011;6781;58.440;15.470;2023-09-07T06:50:47;2.13;;;0.70;;
13419;SDS011;6781;58.440;15.470;2023-09-07T06:53:20;1.17;;;0.70;;
13419;SDS011;6781;58.440;15.470;2023-09-07T06:55:59;2.63;;;0.98;;
13419;SDS011;6781;58.440;15.470;2023-09-07T06:58:26;0.98;;;0.70;;
13419;SDS011;6781;58.440;15.470;2023-09-07T07:00:56;6.85;;;1.65;;
13419;SDS011;6781;58.440;15.470;2023-09-07T07:03:25;2.35;;;0.75;;
13419;SDS011;6781;58.440;15.470;2023-09-07T07:05:54;0.90;;;0.68;;
13419;SDS011;6781;58.440;15.470;2023-09-07T12:09:05;2.17;;;1.20;;
13419;SDS011;6781;58.440;15.470;2023-09-07T12:11:34;3.60;;;1.30;;
13419;SDS011;6781;58.440;15.470;2023-09-07T12:14:02;2.30;;;1.20;;
13419;SDS011;6781;58.440;15.470;2023-09-07T12:16:31;2.28;;;1.13;;
13419;SDS011;6781;58.440;15.470;2023-09-07T12:18:59;1.65;;;1.35;;
13419;SDS011;6781;58.440;15.470;2023-09-07T12:21:26;1.40;;;1.30;;
13419;SDS011;6781;58.440;15.470;2023-09-07T12:23:53;1.90;;;1.20;;
13419;SDS011;6781;58.440;15.470;2023-09-07T12:26:20;2.40;;;1.50;;
13419;SDS011;6781;58.440;15.470;2023-09-07T12:28:47;2.35;;;1.17;;
13419;SDS011;6781;58.440;15.470;2023-09-07T12:31:14;2.58;;;1.40;;
13419;SDS011;6781;58.440;15.470;2023-09-07T12:33:43;1.33;;;1.15;;
13419;SDS011;6781;58.440;15.470;2023-09-07T12:36:10;1.25;;;1.17;;
13419;SDS011;6781;58.440;15.470;2023-09-07T12:38:37;3.97;;;1.35;;
13419;SDS011;6781;58.440;15.470;2023-09-07T12:41:04;1.35;;;1.23;;
13419;SDS011;6781;58.440;15.470;2023-09-07T12:43:31;3.35;;;1.30;;
13419;SDS011;6781;58.440;15.470;2023-09-07T12:45:58;2.05;;;1.17;;
13419;SDS011;6781;58.440;15.470;2023-09-07T12:48:26;1.60;;;1.40;;
13419;SDS011;6781;58.440;15.470;2023-09-07T12:50:55;1.48;;;1.30;;
13419;SDS011;6781;58.440;15.470;2023-09-07T12:53:22;3.30;;;1.35;;
13419;SDS011;6781;58.440;15.470;2023-09-07T12:55:51;1.25;;;1.15;;
13419;SDS011;6781;58.440;15.470;2023-09-07T12:58:18;3.80;;;1.67;;
13419;SDS011;6781;58.440;15.470;2023-09-07T13:00:46;1.48;;;1.38;;
13419;SDS011;6781;58.440;15.470;2023-09-07T13:03:16;1.58;;;1.33;;
13419;SDS011;6781;58.440;15.470;2023-09-07T13:05:43;1.73;;;1.17;;
13419;SDS011;6781;58.440;15.470;2023-09-07T13:08:12;1.65;;;1.15;;
13419;SDS011;6781;58.440;15.470;2023-09-07T13:10:39;1.40;;;1.30;;
13419;SDS011;6781;58.440;15.470;2023-09-07T13:13:06;1.48;;;1.38;;
13419;SDS011;6781;58.440;15.470;2023-09-07T13:15:34;1.58;;;1.30;;
13419;SDS011;6781;58.440;15.470;2023-09-07T13:18:01;1.20;;;1.10;;
13419;SDS011;6781;58.440;15.470;2023-09-07T13:20:28;2.25;;;1.30;;
13419;SDS011;6781;58.440;15.470;2023-09-07T13:22:56;1.13;;;1.02;;
13419;SDS011;6781;58.440;15.470;2023-09-07T13:25:24;1.55;;;1.25;;
13419;SDS011;6781;58.440;15.470;2023-09-07T13:27:52;1.33;;;1.20;;
13419;SDS011;6781;58.440;15.470;2023-09-07T13:30:19;1.38;;;1.27;;
13419;SDS011;6781;58.440;15.470;2023-09-07T13:32:46;1.40;;;1.20;;
13419;SDS011;6781;58.440;15.470;2023-09-07T13:35:15;1.35;;;1.23;;
13419;SDS011;6781;58.440;15.470;2023-09-07T13:37:42;3.03;;;1.60;;
13419;SDS011;6781;58.440;15.470;2023-09-07T13:40:09;1.73;;;1.40;;
13419;SDS011;6781;58.440;15.470;2023-09-07T13:42:40;1.90;;;1.40;;
13419;SDS011;6781;58.440;15.470;2023-09-07T13:45:08;2.25;;;1.23;;
13419;SDS011;6781;58.440;15.470;2023-09-07T13:47:36;2.92;;;1.30;;
13419;SDS011;6781;58.440;15.470;2023-09-07T13:50:03;2.17;;;1.20;;
13419;SDS011;6781;58.440;15.470;2023-09-07T13:52:30;1.63;;;1.52;;
13419;SDS011;6781;58.440;15.470;2023-09-07T13:54:58;1.40;;;1.30;;
13419;SDS011;6781;58.440;15.470;2023-09-07T13:57:25;2.03;;;1.40;;
13419;SDS011;6781;58.440;15.470;2023-09-07T13:59:53;1.38;;;1.27;;
13419;SDS011;6781;58.440;15.470;2023-09-07T14:02:20;3.28;;;1.50;;
13419;SDS011;6781;58.440;15.470;2023-09-07T14:04:48;2.00;;;1.48;;
13419;SDS011;6781;58.440;15.470;2023-09-07T14:07:15;1.90;;;1.48;;
13419;SDS011;6781;58.440;15.470;2023-09-07T14:09:43;4.38;;;1.45;;
13419;SDS011;6781;58.440;15.470;2023-09-07T14:12:10;1.63;;;1.30;;
13419;SDS011;6781;58.440;15.470;2023-09-07T14:14:37;1.52;;;1.15;;
13419;SDS011;6781;58.440;15.470;2023-09-07T14:17:06;1.23;;;1.13;;
13419;SDS011;6781;58.440;15.470;2023-09-07T14:19:33;2.60;;;1.45;;
13419;SDS011;6781;58.440;15.470;2023-09-07T14:22:01;1.50;;;1.40;;
13419;SDS011;6781;58.440;15.470;2023-09-07T14:24:28;2.90;;;1.40;;
13419;SDS011;6781;58.440;15.470;2023-09-07T14:26:57;1.85;;;1.42;;
13419;SDS011;6781;58.440;15.470;2023-09-07T14:29:24;2.20;;;1.55;;
13419;SDS011;6781;58.440;15.470;2023-09-07T14:31:52;1.63;;;1.52;;
13419;SDS011;6781;58.440;15.470;2023-09-07T14:34:20;1.67;;;1.40;;
13419;SDS011;6781;58.440;15.470;2023-09-07T14:36:48;1.42;;;1.33;;
13419;SDS011;6781;58.440;15.470;2023-09-07T14:39:15;2.33;;;1.52;;
13419;SDS011;6781;58.440;15.470;2023-09-07T14:41:45;1.50;;;1.25;;
13419;SDS011;6781;58.440;15.470;2023-09-07T14:44:14;1.55;;;1.40;;
13419;SDS011;6781;58.440;15.470;2023-09-07T14:46:41;2.72;;;1.58;;
13419;SDS011;6781;58.440;15.470;2023-09-07T14:49:08;4.47;;;1.65;;
13419;SDS011;6781;58.440;15.470;2023-09-07T14:51:36;1.85;;;1.40;;
13419;SDS011;6781;58.440;15.470;2023-09-07T14:54:03;1.48;;;1.35;;
13419;SDS011;6781;58.440;15.470;2023-09-07T14:56:31;1.60;;;1.35;;
13419;SDS011;6781;58.440;15.470;2023-09-07T14:59:00;3.55;;;1.70;;
13419;SDS011;6781;58.440;15.470;2023-09-07T15:01:27;1.85;;;1.48;;
13419;SDS011;6781;58.440;15.470;2023-09-07T15:03:54;3.60;;;1.60;;
13419;SDS011;6781;58.440;15.470;2023-09-07T15:06:21;1.42;;;1.27;;
13419;SDS011;6781;58.440;15.470;2023-09-07T15:08:50;1.63;;;1.52;;
13419;SDS011;6781;58.440;15.470;2023-09-07T15:11:19;2.60;;;1.55;;
13419;SDS011;6781;58.440;15.470;2023-09-07T15:13:47;2.03;;;1.50;;
13419;SDS011;6781;58.440;15.470;2023-09-07T15:16:17;3.58;;;1.48;;
13419;SDS011;6781;58.440;15.470;2023-09-07T15:18:45;3.28;;;1.63;;
13419;SDS011;6781;58.440;15.470;2023-09-07T15:21:12;2.22;;;1.67;;
13419;SDS011;6781;58.440;15.470;2023-09-07T15:23:39;1.67;;;1.50;;
13419;SDS011;6781;58.440;15.470;2023-09-07T15:26:08;1.77;;;1.42;;
13419;SDS011;6781;58.440;15.470;2023-09-07T15:28:37;2.40;;;1.60;;
13419;SDS011;6781;58.440;15.470;2023-09-07T15:31:05;3.20;;;1.55;;
13419;SDS011;6781;58.440;15.470;2023-09-07T15:33:32;2.78;;;1.75;;
13419;SDS011;6781;58.440;15.470;2023-09-07T15:36:00;4.18;;;1.70;;
13419;SDS011;6781;58.440;15.470;2023-09-07T15:38:27;2.97;;;1.50;;
13419;SDS011;6781;58.440;15.470;2023-09-07T15:40:55;1.90;;;1.67;;
13419;SDS011;6781;58.440;15.470;2023-09-07T15:43:24;2.40;;;1.90;;
13419;SDS011;6781;58.440;15.470;2023-09-07T15:45:52;1.80;;;1.70;;
13419;SDS011;6781;58.440;15.470;2023-09-07T15:48:19;1.90;;;1.80;;
13419;SDS011;6781;58.440;15.470;2023-09-07T15:50:46;2.80;;;1.63;;
13419;SDS011;6781;58.440;15.470;2023-09-07T15:53:14;2.40;;;1.33;;
13419;SDS011;6781;58.440;15.470;2023-09-07T15:55:41;3.20;;;1.65;;
13419;SDS011;6781;58.440;15.470;2023-09-07T15:58:10;2.05;;;1.80;;
13419;SDS011;6781;58.440;15.470;2023-09-07T16:00:41;4.60;;;1.85;;
13419;SDS011;6781;58.440;15.470;2023-09-07T16:03:09;1.90;;;1.70;;
13419;SDS011;6781;58.440;15.470;2023-09-07T16:05:39;3.03;;;1.63;;
13419;SDS011;6781;58.440;15.470;2023-09-07T16:08:08;4.40;;;1.88;;
13419;SDS011;6781;58.440;15.470;2023-09-07T16:10:34;2.83;;;1.70;;
13419;SDS011;6781;58.440;15.470;2023-09-07T16:13:03;3.10;;;1.80;;
13419;SDS011;6781;58.440;15.470;2023-09-07T16:15:30;1.80;;;1.70;;
13419;SDS011;6781;58.440;15.470;2023-09-07T16:17:59;5.82;;;2.03;;
13419;SDS011;6781;58.440;15.470;2023-09-07T16:20:27;4.07;;;1.70;;
13419;SDS011;6781;58.440;15.470;2023-09-07T16:22:54;4.68;;;1.67;;
13419;SDS011;6781;58.440;15.470;2023-09-07T16:25:21;2.30;;;1.50;;
13419;SDS011;6781;58.440;15.470;2023-09-07T16:27:49;2.60;;;1.58;;
13419;SDS011;6781;58.440;15.470;2023-09-07T16:30:17;2.75;;;1.63;;
13419;SDS011;6781;58.440;15.470;2023-09-07T16:32:44;2.92;;;2.00;;
13419;SDS011;6781;58.440;15.470;2023-09-07T16:35:15;3.45;;;2.00;;
13419;SDS011;6781;58.440;15.470;2023-09-07T16:37:42;6.63;;;1.90;;
13419;SDS011;6781;58.440;15.470;2023-09-07T16:40:09;3.08;;;1.60;;
13419;SDS011;6781;58.440;15.470;2023-09-07T16:42:38;2.45;;;1.70;;
13419;SDS011;6781;58.440;15.470;2023-09-07T16:45:06;4.25;;;1.90;;
13419;SDS011;6781;58.440;15.470;2023-09-07T16:47:33;2.00;;;1.80;;
13419;SDS011;6781;58.440;15.470;2023-09-07T16:50:01;3.00;;;1.73;;
13419;SDS011;6781;58.440;15.470;2023-09-07T16:52:30;2.97;;;2.15;;
13419;SDS011;6781;58.440;15.470;2023-09-07T16:54:57;2.70;;;1.70;;
13419;SDS011;6781;58.440;15.470;2023-09-07T16:57:24;4.43;;;2.00;;
13419;SDS011;6781;58.440;15.470;2023-09-07T16:59:53;1.80;;;1.55;;
13419;SDS011;6781;58.440;15.470;2023-09-07T17:02:22;2.75;;;1.90;;
13419;SDS011;6781;58.440;15.470;2023-09-07T17:04:49;2.00;;;1.80;;
13419;SDS011;6781;58.440;15.470;2023-09-07T17:07:31;3.00;;;1.73;;
13419;SDS011;6781;58.440;15.470;2023-09-07T17:10:00;3.13;;;1.95;;
13419;SDS011;6781;58.440;15.470;2023-09-07T17:12:28;4.82;;;2.05;;
13419;SDS011;6781;58.440;15.470;2023-09-07T17:14:55;4.10;;;1.70;;
13419;SDS011;6781;58.440;15.470;2023-09-07T17:17:24;2.42;;;1.92;;
13419;SDS011;6781;58.440;15.470;2023-09-07T17:19:51;3.95;;;2.13;;
13419;SDS011;6781;58.440;15.470;2023-09-07T17:22:19;2.00;;;1.90;;
13419;SDS011;6781;58.440;15.470;2023-09-07T17:24:48;2.28;;;1.80;;
13419;SDS011;6781;58.440;15.470;2023-09-07T17:27:15;2.70;;;2.13;;
13419;SDS011;6781;58.440;15.470;2023-09-07T17:29:44;2.83;;;1.98;;
13419;SDS011;6781;58.440;15.470;2023-09-07T17:32:11;2.72;;;1.70;;
13419;SDS011;6781;58.440;15.470;2023-09-07T17:34:39;2.42;;;1.73;;
13419;SDS011;6781;58.440;15.470;2023-09-07T17:37:06;2.25;;;2.03;;
13419;SDS011;6781;58.440;15.470;2023-09-07T17:39:33;4.50;;;2.25;;
13419;SDS011;6781;58.440;15.470;2023-09-07T17:42:05;4.00;;;2.30;;
13419;SDS011;6781;58.440;15.470;2023-09-07T17:44:33;1.88;;;1.70;;
13419;SDS011;6781;58.440;15.470;2023-09-07T17:47:01;3.80;;;2.10;;
13419;SDS011;6781;58.440;15.470;2023-09-07T17:49:28;3.58;;;2.20;;
13419;SDS011;6781;58.440;15.470;2023-09-07T17:51:55;2.63;;;2.00;;
13419;SDS011;6781;58.440;15.470;2023-09-07T17:54:22;2.35;;;1.88;;
13419;SDS011;6781;58.440;15.470;2023-09-07T17:56:49;4.13;;;2.08;;
13419;SDS011;6781;58.440;15.470;2023-09-07T17:59:18;3.42;;;2.30;;
13419;SDS011;6781;58.440;15.470;2023-09-07T18:01:45;3.90;;;2.10;;
13419;SDS011;6781;58.440;15.470;2023-09-07T18:04:14;3.38;;;2.53;;
13419;SDS011;6781;58.440;15.470;2023-09-07T18:06:50;3.85;;;1.98;;
13419;SDS011;6781;58.440;15.470;2023-09-07T18:09:18;2.58;;;1.90;;
13419;SDS011;6781;58.440;15.470;2023-09-07T18:11:45;2.33;;;2.08;;
13419;SDS011;6781;58.440;15.470;2023-09-07T18:14:12;1.95;;;1.77;;
13419;SDS011;6781;58.440;15.470;2023-09-07T18:16:42;2.30;;;2.10;;
13419;SDS011;6781;58.440;15.470;2023-09-07T18:19:09;5.40;;;2.10;;
13419;SDS011;6781;58.440;15.470;2023-09-07T18:21:37;2.95;;;2.20;;
13419;SDS011;6781;58.440;15.470;2023-09-07T18:24:04;4.95;;;2.05;;
13419;SDS011;6781;58.440;15.470;2023-09-07T18:26:32;2.30;;;2.10;;
13419;SDS011;6781;58.440;15.470;2023-09-07T18:28:59;2.65;;;1.92;;
13419;SDS011;6781;58.440;15.470;2023-09-07T18:31:32;2.65;;;2.13;;
13419;SDS011;6781;58.440;15.470;2023-09-07T18:34:01;4.15;;;2.25;;
13419;SDS011;6781;58.440;15.470;2023-09-07T18:36:28;2.42;;;2.15;;
13419;SDS011;6781;58.440;15.470;2023-09-07T18:38:55;4.68;;;2.03;;
13419;SDS011;6781;58.440;15.470;2023-09-07T18:41:22;3.08;;;2.35;;
13419;SDS011;6781;58.440;15.470;2023-09-07T18:43:50;6.22;;;2.35;;
13419;SDS011;6781;58.440;15.470;2023-09-07T18:46:19;6.18;;;2.58;;
13419;SDS011;6781;58.440;15.470;2023-09-07T18:48:46;2.92;;;2.45;;
13419;SDS011;6781;58.440;15.470;2023-09-07T18:51:14;3.42;;;2.15;;
13419;SDS011;6781;58.440;15.470;2023-09-07T18:53:42;8.82;;;2.33;;
13419;SDS011;6781;58.440;15.470;2023-09-07T18:56:09;2.55;;;2.35;;
13419;SDS011;6781;58.440;15.470;2023-09-07T18:58:36;3.45;;;2.25;;
13419;SDS011;6781;58.440;15.470;2023-09-07T19:01:10;3.20;;;2.60;;
13419;SDS011;6781;58.440;15.470;2023-09-07T19:03:38;5.28;;;2.53;;
13419;SDS011;6781;58.440;15.470;2023-09-07T19:06:05;4.95;;;2.50;;
13419;SDS011;6781;58.440;15.470;2023-09-07T19:08:34;5.03;;;2.60;;
13419;SDS011;6781;58.440;15.470;2023-09-07T19:11:01;5.53;;;2.35;;
13419;SDS011;6781;58.440;15.470;2023-09-07T19:13:28;4.30;;;2.40;;
13419;SDS011;6781;58.440;15.470;2023-09-07T19:15:55;4.85;;;2.80;;
13419;SDS011;6781;58.440;15.470;2023-09-07T19:18:24;2.50;;;2.30;;
13419;SDS011;6781;58.440;15.470;2023-09-07T19:20:52;3.33;;;2.28;;
13419;SDS011;6781;58.440;15.470;2023-09-07T19:23:19;4.22;;;2.20;;
13419;SDS011;6781;58.440;15.470;2023-09-07T19:25:49;4.13;;;2.55;;
13419;SDS011;6781;58.440;15.470;2023-09-07T19:28:16;4.53;;;2.58;;
13419;SDS011;6781;58.440;15.470;2023-09-07T19:30:44;3.95;;;2.88;;
13419;SDS011;6781;58.440;15.470;2023-09-07T19:33:11;4.20;;;3.28;;
13419;SDS011;6781;58.440;15.470;2023-09-07T19:35:38;3.47;;;2.95;;
13419;SDS011;6781;58.440;15.470;2023-09-07T19:38:07;3.42;;;2.85;;
13419;SDS011;6781;58.440;15.470;2023-09-07T19:40:34;2.88;;;2.60;;
13419;SDS011;6781;58.440;15.470;2023-09-07T19:43:03;4.05;;;3.00;;
13419;SDS011;6781;58.440;15.470;2023-09-07T19:45:30;5.30;;;2.70;;
13419;SDS011;6781;58.440;15.470;2023-09-07T19:47:57;5.07;;;3.30;;
13419;SDS011;6781;58.440;15.470;2023-09-07T19:50:24;3.10;;;2.80;;
13419;SDS011;6781;58.440;15.470;2023-09-07T19:52:53;3.65;;;2.78;;
13419;SDS011;6781;58.440;15.470;2023-09-07T19:55:19;6.63;;;2.80;;
13419;SDS011;6781;58.440;15.470;2023-09-07T19:57:47;3.47;;;2.90;;
13419;SDS011;6781;58.440;15.470;2023-09-07T20:00:16;3.80;;;2.90;;
13419;SDS011;6781;58.440;15.470;2023-09-07T20:02:43;3.13;;;2.83;;
13419;SDS011;6781;58.440;15.470;2023-09-07T20:05:10;4.50;;;3.00;;
13419;SDS011;6781;58.440;15.470;2023-09-07T20:07:37;3.42;;;3.15;;
13419;SDS011;6781;58.440;15.470;2023-09-07T20:10:06;4.85;;;3.42;;
13419;SDS011;6781;58.440;15.470;2023-09-07T20:12:35;4.35;;;2.75;;
13419;SDS011;6781;58.440;15.470;2023-09-07T20:15:03;3.40;;;3.08;;
13419;SDS011;6781;58.440;15.470;2023-09-07T20:17:32;4.63;;;3.63;;
13419;SDS011;6781;58.440;15.470;2023-09-07T20:19:59;3.83;;;3.53;;
13419;SDS011;6781;58.440;15.470;2023-09-07T20:22:27;4.18;;;3.15;;
13419;SDS011;6781;58.440;15.470;2023-09-07T20:24:54;4.60;;;3.10;;
13419;SDS011;6781;58.440;15.470;2023-09-07T20:27:22;4.60;;;3.60;;
13419;SDS011;6781;58.440;15.470;2023-09-07T20:29:49;4.97;;;3.17;;
13419;SDS011;6781;58.440;15.470;2023-09-07T20:32:17;4.97;;;3.60;;
13419;SDS011;6781;58.440;15.470;2023-09-07T20:34:45;3.42;;;3.03;;
13419;SDS011;6781;58.440;15.470;2023-09-07T20:37:12;5.07;;;3.50;;
13419;SDS011;6781;58.440;15.470;2023-09-07T20:39:39;3.40;;;3.08;;